Time;durP1;ratioP1;P1;durP2;ratioP2;P2;SDS_P1;SDS_P2;PMS_P1;PMS_P2;Temp;Humidity;BMP_temperature;BMP_pressure;BME280_temperature;BME280_humidity;BME280_pressure;Samples;Min_cycle;Max_cycle;Signal;HPM_P1;HPM_P2
2022/12/13 00:01:28;;;;;;;40.88;14.82;;;;;;;-9.36;66.06;91960.31;2051710;70;20182;-80
2022/12/13 00:03:56;;;;;;;36.20;14.55;;;;;;;-9.43;65.24;91954.66;2051697;70;20225;-74
2022/12/13 00:06:23;;;;;;;37.67;14.98;;;;;;;-9.48;65.73;91967.06;2051770;70;20162;-74
2022/12/13 00:08:49;;;;;;;45.38;14.80;;;;;;;-9.52;66.02;91958.41;2051749;69;20249;-75
2022/12/13 00:11:15;;;;;;;37.60;14.20;;;;;;;-9.48;66.50;91951.47;2051674;70;20610;-76
2022/12/13 00:13:42;;;;;;;31.20;12.82;;;;;;;-9.38;66.13;91957.38;2051144;70;20145;-85
2022/12/13 00:16:15;;;;;;;34.63;14.82;;;;;;;-9.49;65.03;91957.41;2051644;69;20152;-85
2022/12/13 00:18:42;;;;;;;34.65;14.27;;;;;;;-9.44;65.52;91945.00;2050949;70;20174;-81
2022/12/13 00:21:13;;;;;;;43.05;16.85;;;;;;;-9.56;66.13;91945.03;2051028;70;20158;-78
2022/12/13 00:23:38;;;;;;;38.72;15.70;;;;;;;-9.51;65.29;91932.66;2051531;70;20147;-81
2022/12/13 00:26:10;;;;;;;40.88;14.82;;;;;;;-9.54;65.51;91937.09;2051679;70;20142;-78
2022/12/13 00:28:36;;;;;;;;;;;;;;;-9.46;65.56;91942.78;2051838;70;20246;-81
2022/12/13 00:31:02;;;;;;;30.45;13.80;;;;;;;-9.42;65.00;91934.34;2051724;70;20110;-80
2022/12/13 00:33:28;;;;;;;42.53;14.52;;;;;;;-9.54;65.65;91928.91;2051684;70;20210;-81
2022/12/13 00:35:54;;;;;;;33.85;13.48;;;;;;;-9.60;66.22;91939.09;2051812;69;20558;-76
2022/12/13 00:38:20;;;;;;;31.20;12.63;;;;;;;-9.58;65.61;91933.88;2051410;70;20238;-78
2022/12/13 00:40:46;;;;;;;33.58;13.55;;;;;;;-9.56;66.19;91933.41;2051568;70;20588;-76
2022/12/13 00:43:15;;;;;;;37.47;12.98;;;;;;;-9.59;65.80;91934.41;2051651;70;20157;-75
2022/12/13 00:45:42;;;;;;;34.10;13.52;;;;;;;-9.69;65.62;91927.75;2051766;70;20634;-75
2022/12/13 00:48:08;;;;;;;43.80;13.55;;;;;;;-9.59;66.86;91929.69;2051170;70;20154;-76
2022/12/13 00:50:34;;;;;;;39.45;14.02;;;;;;;-9.49;66.51;91928.16;2051718;70;20153;-84
2022/12/13 00:53:02;;;;;;;34.97;14.13;;;;;;;-9.67;66.08;91927.97;2051105;70;20150;-84
2022/12/13 00:55:28;;;;;;;38.72;12.52;;;;;;;-9.70;65.96;91912.66;2050991;70;20515;-83
2022/12/13 00:57:53;;;;;;;34.17;13.10;;;;;;;-9.54;66.05;91928.19;2051488;69;20151;-80
2022/12/13 01:00:19;;;;;;;35.67;13.90;;;;;;;-9.64;65.54;91921.53;2051623;69;20600;-84
2022/12/13 01:02:45;;;;;;;29.48;12.05;;;;;;;-9.57;65.96;91919.03;2051796;70;20217;-79
2022/12/13 01:05:11;;;;;;;30.67;11.95;;;;;;;-9.63;65.23;91909.38;2051900;69;20157;-78
2022/12/13 01:07:43;;;;;;;29.38;12.93;;;;;;;-9.64;65.68;91929.72;2051608;70;20579;-79
2022/12/13 01:10:10;;;;;;;33.90;13.00;;;;;;;-9.94;66.56;91905.78;2051701;70;20237;-80
2022/12/13 01:12:36;;;;;;;28.58;12.50;;;;;;;-9.73;66.53;91920.56;2051817;70;20173;-77
2022/12/13 01:15:03;;;;;;;29.23;11.98;;;;;;;-9.56;66.30;91925.22;2050996;70;20478;-80
2022/12/13 01:17:29;;;;;;;36.60;12.52;;;;;;;-9.74;66.55;91916.38;2052029;69;20169;-77
2022/12/13 01:19:55;;;;;;;28.50;11.98;;;;;;;-9.76;67.11;91912.66;2051761;70;20138;-76
2022/12/13 01:22:21;;;;;;;26.10;12.15;;;;;;;-9.60;66.91;91925.47;2051250;70;20219;-77
2022/12/13 01:24:47;;;;;;;23.33;9.70;;;;;;;-9.57;66.68;91919.03;2051869;69;20360;-76
2022/12/13 01:27:12;;;;;;;22.17;9.18;;;;;;;-9.49;66.47;91917.25;2051807;69;20160;-78
2022/12/13 01:29:38;;;;;;;26.15;11.38;;;;;;;-9.93;68.50;91909.97;2051736;70;20666;-81
2022/12/13 01:32:04;;;;;;;30.83;12.13;;;;;;;-9.85;68.49;91921.09;2051398;70;20148;-76
2022/12/13 01:34:31;;;;;;;26.48;11.00;;;;;;;-9.84;66.79;91907.00;2051802;69;20138;-82
2022/12/13 01:36:57;;;;;;;21.23;9.88;;;;;;;-9.65;67.82;91906.44;2051281;70;20275;-81
2022/12/13 01:39:22;;;;;;;28.27;10.55;;;;;;;-9.66;67.23;91900.25;2051645;70;20150;-76
2022/12/13 01:41:58;;;;;;;24.65;10.95;;;;;;;-9.83;66.91;91915.91;2052037;69;20225;-79
2022/12/13 01:44:54;;;;;;;28.92;10.77;;;;;;;-9.82;66.46;91917.38;2051866;69;20154;-79
2022/12/13 01:47:32;;;;;;;27.35;11.05;;;;;;;-9.87;66.44;91899.81;2051822;70;20604;-80
2022/12/13 01:50:04;;;;;;;31.73;11.88;;;;;;;-9.91;65.90;91896.59;2051661;70;20555;-77
2022/12/13 01:52:32;;;;;;;25.05;10.65;;;;;;;-9.93;65.84;91906.53;2051744;70;20202;-78
2022/12/13 01:55:00;;;;;;;30.52;11.52;;;;;;;-9.95;66.21;91900.81;2051446;70;20572;-78
2022/12/13 01:57:25;;;;;;;29.40;11.00;;;;;;;-10.06;66.48;91890.69;2051713;70;20235;-81
2022/12/13 01:59:53;;;;;;;27.95;10.98;;;;;;;-9.97;66.23;91898.59;2051616;69;20536;-83
2022/12/13 02:02:21;;;;;;;27.30;10.80;;;;;;;-9.93;66.18;91893.66;2051185;70;20161;-81
2022/12/13 02:05:05;;;;;;;29.20;11.55;;;;;;;-9.88;66.05;91886.69;2051775;69;20148;-78
2022/12/13 02:07:34;;;;;;;32.45;11.05;;;;;;;-10.15;66.30;91877.34;2051912;70;20220;-82
2022/12/13 02:10:02;;;;;;;28.45;11.68;;;;;;;-10.01;66.54;91887.22;2051619;70;20147;-81
2022/12/13 02:12:31;;;;;;;33.92;11.70;;;;;;;-9.96;65.61;91875.56;2051616;70;20134;-80
2022/12/13 02:15:06;;;;;;;25.95;10.45;;;;;;;-9.89;66.24;91874.34;2051878;70;20146;-81
2022/12/13 02:17:55;;;;;;;28.65;9.82;;;;;;;-10.06;66.13;91872.38;2051744;70;20166;-78
2022/12/13 02:20:49;;;;;;;33.38;10.82;;;;;;;-9.85;67.04;91872.84;2051201;70;20162;-75
2022/12/13 02:23:39;;;;;;;27.25;10.23;;;;;;;-9.97;66.51;91863.22;2051590;70;20153;-78
2022/12/13 02:26:36;;;;;;;22.67;9.35;;;;;;;-10.05;66.32;91870.41;2051800;69;20150;-78
2022/12/13 02:29:10;;;;;;;21.70;9.75;;;;;;;-9.89;67.06;91871.59;2052109;69;20150;-80
2022/12/13 02:31:54;;;;;;;23.00;9.35;;;;;;;-10.04;65.86;91859.00;2051420;70;20146;-80
2022/12/13 02:34:25;;;;;;;24.45;9.02;;;;;;;-10.02;67.09;91863.97;2052311;69;20145;-80
2022/12/13 02:37:24;;;;;;;23.00;9.48;;;;;;;-9.88;67.29;91870.38;2052694;70;20143;-76
2022/12/13 02:40:10;;;;;;;22.13;9.25;;;;;;;-9.96;66.05;91866.66;2054673;70;20229;-75
2022/12/13 02:43:11;;;;;;;20.27;8.95;;;;;;;-10.14;65.52;91841.47;2056108;70;20138;-74
2022/12/13 02:45:39;;;;;;;21.23;8.55;;;;;;;-10.10;66.33;91863.00;2051338;70;20162;-78
2022/12/13 02:48:08;;;;;;;20.77;8.80;;;;;;;-10.09;65.62;91859.75;2053204;70;20269;-76
2022/12/13 02:50:35;;;;;;;24.10;8.40;;;;;;;-10.16;65.57;91865.72;2052457;70;20142;-75
2022/12/13 02:53:01;;;;;;;19.33;8.07;;;;;;;-10.07;66.50;91851.84;2052092;70;20158;-76
2022/12/13 02:55:27;;;;;;;24.45;8.18;;;;;;;-9.98;66.45;91851.56;2051556;70;20150;-81
2022/12/13 02:57:54;;;;;;;23.27;9.05;;;;;;;-10.03;65.85;91855.06;2051739;70;20281;-82
2022/12/13 03:00:56;;;;;;;20.70;8.57;;;;;;;-10.21;66.37;91836.53;2051421;70;20241;-79
2022/12/13 03:03:34;;;;;;;22.20;9.43;;;;;;;-9.98;66.49;91851.56;2043934;70;20273;-77
2022/12/13 03:09:10;;;;;;;18.10;7.97;;;;;;;-9.95;66.09;91846.34;2043417;70;20147;-79
2022/12/13 03:15:16;;;;;;;19.10;7.72;;;;;;;-9.93;66.84;91846.63;2043621;70;20146;-79
2022/12/13 03:17:54;;;;;;;22.83;8.00;;;;;;;-10.05;66.95;91835.75;2038259;70;20145;-77
2022/12/13 03:20:24;;;;;;;20.05;7.82;;;;;;;-10.24;67.25;91832.81;2043171;70;20158;-75
2022/12/13 03:22:51;;;;;;;18.90;7.95;;;;;;;-10.08;66.51;91836.00;2037573;70;20144;-74
2022/12/13 03:25:18;;;;;;;19.00;7.75;;;;;;;-10.10;66.30;91835.75;2043604;70;20588;-79
2022/12/13 03:27:47;;;;;;;21.67;8.57;;;;;;;-10.21;66.42;91822.94;2043701;70;20147;-75
2022/12/13 03:30:15;;;;;;;18.45;7.97;;;;;;;-10.19;65.87;91834.06;2043441;70;20131;-75
2022/12/13 03:32:40;;;;;;;21.90;7.70;;;;;;;-10.21;65.52;91833.81;2040729;70;20150;-77
2022/12/13 03:35:07;;;;;;;18.63;7.63;;;;;;;-10.32;65.87;91831.16;2043367;70;20143;-74
2022/12/13 03:37:36;;;;;;;20.73;7.63;;;;;;;-10.19;66.03;91831.34;2040995;70;20162;-78
2022/12/13 03:40:02;;;;;;;16.20;6.85;;;;;;;-10.27;66.00;91833.09;2044559;70;20181;-78
2022/12/13 03:42:27;;;;;;;19.45;7.85;;;;;;;-10.42;66.85;91836.13;2051083;70;20212;-78
2022/12/13 03:44:56;;;;;;;23.23;8.00;;;;;;;-10.18;66.73;91832.81;2050989;70;20242;-77
2022/12/13 03:47:21;;;;;;;18.73;7.00;;;;;;;-10.24;66.05;91830.09;2051113;70;20142;-75
2022/12/13 03:49:47;;;;;;;17.17;7.15;;;;;;;-10.12;67.15;91828.09;2050967;70;20134;-76
2022/12/13 03:52:13;;;;;;;16.88;7.50;;;;;;;-10.15;66.95;91825.63;2050421;70;20169;-79
2022/12/13 03:54:38;;;;;;;14.60;6.88;;;;;;;-10.09;66.88;91818.94;2050526;70;20177;-74
2022/12/13 03:57:04;;;;;;;20.73;7.43;;;;;;;-10.11;66.62;91812.50;2050523;70;20589;-76
2022/12/13 03:59:29;;;;;;;18.77;6.85;;;;;;;-10.20;66.47;91810.81;2051258;70;20150;-74
2022/12/13 04:01:55;;;;;;;15.23;6.20;;;;;;;-10.17;67.06;91819.94;2051252;70;20240;-76
2022/12/13 04:04:20;;;;;;;18.00;7.00;;;;;;;-10.40;67.11;91814.59;2050796;70;20516;-76
2022/12/13 04:06:46;;;;;;;17.00;7.45;;;;;;;-10.35;66.28;91811.13;2050820;70;20529;-77
2022/12/13 04:09:12;;;;;;;17.27;6.78;;;;;;;-10.35;66.51;91804.94;2050754;70;20170;-76
2022/12/13 04:14:21;;;;;;;18.52;6.85;;;;;;;-10.60;66.52;91804.72;2051101;70;20569;-75
2022/12/13 04:16:47;;;;;;;17.23;7.30;;;;;;;-10.39;66.66;91807.19;2050904;70;20217;-78
2022/12/13 04:19:13;;;;;;;16.95;7.30;;;;;;;-10.30;66.19;91810.38;2050247;70;20164;-79
2022/12/13 04:21:38;;;;;;;16.77;7.05;;;;;;;-10.35;65.81;91802.22;2050947;70;20278;-79
2022/12/13 04:24:04;;;;;;;19.33;7.55;;;;;;;-10.42;65.89;91798.03;2050291;70;20146;-78
2022/12/13 04:26:30;;;;;;;23.10;9.57;;;;;;;-10.43;66.62;91807.44;2050800;70;20261;-76
2022/12/13 04:28:56;;;;;;;25.80;8.85;;;;;;;-10.33;67.17;91803.19;2050381;70;20178;-75
2022/12/13 04:31:22;;;;;;;24.52;8.52;;;;;;;-10.38;65.85;91803.94;2051049;70;20151;-76
2022/12/13 04:33:48;;;;;;;21.25;7.78;;;;;;;-10.58;66.73;91802.28;2050441;70;20230;-79
2022/12/13 04:36:18;;;;;;;57.50;17.80;;;;;;;-10.45;67.65;91806.44;2051522;70;20304;-74
2022/12/13 04:38:47;;;;;;;200.45;45.78;;;;;;;-10.36;67.32;91800.72;2051161;70;20154;-79
2022/12/13 04:41:15;;;;;;;293.88;66.88;;;;;;;-10.28;67.32;91804.41;2051228;69;20264;-79
2022/12/13 04:43:41;;;;;;;156.07;38.80;;;;;;;-10.41;66.53;91802.22;2051425;70;20193;-75
2022/12/13 04:46:07;;;;;;;188.93;42.60;;;;;;;-10.30;67.48;91804.19;2051406;70;20611;-77
2022/12/13 04:48:33;;;;;;;168.65;38.65;;;;;;;-10.28;66.49;91802.44;2051448;69;20201;-77
2022/12/13 04:51:00;;;;;;;174.52;40.03;;;;;;;-10.30;66.64;91796.03;2051482;70;20566;-76
2022/12/13 04:53:27;;;;;;;142.05;34.45;;;;;;;-10.39;65.90;91786.16;2051336;69;20150;-75
2022/12/13 04:55:52;;;;;;;82.05;24.67;;;;;;;-10.23;67.34;91796.19;2051253;69;20189;-76
2022/12/13 04:58:18;;;;;;;100.30;27.08;;;;;;;-10.30;66.62;91798.75;2051456;70;20206;-76
2022/12/13 05:00:47;;;;;;;40.83;10.93;;;;;;;-10.90;67.94;91784.75;2051800;69;20154;-76
2022/12/13 05:03:13;;;;;;;32.50;10.55;;;;;;;-10.68;68.18;91794.84;2050960;70;20470;-77
2022/12/13 05:05:39;;;;;;;51.58;14.48;;;;;;;-10.58;67.66;91777.03;2051278;69;20146;-77
2022/12/13 05:08:08;;;;;;;57.08;17.13;;;;;;;-10.54;66.56;91777.50;2051330;70;20154;-78
2022/12/13 05:10:34;;;;;;;70.63;20.45;;;;;;;-10.51;67.02;91788.16;2051428;69;20267;-76
2022/12/13 05:13:00;;;;;;;92.35;24.40;;;;;;;-10.42;67.27;91781.69;2051748;69;20180;-74
2022/12/13 05:15:26;;;;;;;85.63;24.80;;;;;;;-10.30;66.56;91771.53;2050866;70;20238;-78
2022/12/13 05:17:52;;;;;;;71.13;22.02;;;;;;;-10.44;65.79;91784.19;2051080;69;20945;-74
2022/12/13 05:20:19;;;;;;;72.00;22.15;;;;;;;-10.38;66.89;91789.59;2050735;70;20150;-79
2022/12/13 05:22:45;;;;;;;74.18;22.90;;;;;;;-10.43;65.62;91784.94;2051365;70;20301;-78
2022/12/13 05:25:10;;;;;;;71.95;23.65;;;;;;;-10.49;66.00;91779.47;2051259;70;20566;-80
2022/12/13 05:27:36;;;;;;;82.20;26.75;;;;;;;-10.35;67.23;91786.63;2051142;69;20637;-78
2022/12/13 05:30:02;;;;;;;63.90;19.35;;;;;;;-10.70;67.81;91775.59;2050688;70;20168;-76
2022/12/13 05:32:37;;;;;;;73.93;23.08;;;;;;;-10.49;67.63;91782.19;2051616;69;20303;-76
2022/12/13 05:35:04;;;;;;;71.50;22.83;;;;;;;-10.41;67.18;91788.63;2051388;70;20220;-75
2022/12/13 05:37:29;;;;;;;73.22;22.67;;;;;;;-10.45;66.82;91782.69;2051561;70;20175;-78
2022/12/13 05:39:55;;;;;;;83.28;24.65;;;;;;;-10.41;66.06;91779.72;2051469;70;20150;-75
2022/12/13 05:42:21;;;;;;;70.70;23.65;;;;;;;-10.39;66.40;91783.44;2051957;70;20174;-77
2022/12/13 05:44:52;;;;;;;74.23;21.60;;;;;;;-10.58;66.64;91783.22;2052013;70;20642;-79
2022/12/13 05:47:18;;;;;;;63.20;20.27;;;;;;;-10.56;65.87;91771.84;2051986;70;20166;-75
2022/12/13 05:49:45;;;;;;;60.17;21.60;;;;;;;-10.47;66.20;91779.72;2052223;69;20158;-72
2022/12/13 05:52:18;;;;;;;69.72;22.35;;;;;;;-10.66;66.50;91768.66;2052332;69;20161;-79
2022/12/13 05:54:44;;;;;;;60.88;19.67;;;;;;;-10.40;67.11;91792.84;2052004;69;20154;-77
2022/12/13 05:57:10;;;;;;;61.53;21.13;;;;;;;-10.39;66.92;91786.16;2051623;69;20161;-80
2022/12/13 05:59:35;;;;;;;64.10;19.90;;;;;;;-10.61;67.86;91786.19;2051408;70;20168;-76
2022/12/13 06:02:01;;;;;;;68.93;21.35;;;;;;;-10.88;66.39;91744.22;2052034;70;20681;-76
2022/12/13 06:04:26;;;;;;;45.08;16.50;;;;;;;-10.59;66.71;91775.56;2051429;70;20571;-77
2022/12/13 06:06:52;;;;;;;58.58;16.80;;;;;;;-10.60;66.45;91771.34;2051577;70;20618;-75
2022/12/13 06:09:19;;;;;;;43.72;16.60;;;;;;;-10.61;66.78;91776.06;2051687;70;20170;-77
2022/12/13 06:11:44;;;;;;;47.55;16.35;;;;;;;-10.37;66.64;91778.22;2052097;69;20169;-80
2022/12/13 06:14:10;;;;;;;46.83;16.52;;;;;;;-10.53;66.60;91770.84;2052318;70;20583;-80
2022/12/13 06:16:35;;;;;;;51.95;17.65;;;;;;;-10.63;66.69;91762.19;2051928;69;20185;-79
2022/12/13 06:19:01;;;;;;;64.53;20.45;;;;;;;-10.46;67.16;91772.31;2051965;70;20626;-78
2022/12/13 06:21:27;;;;;;;55.42;20.55;;;;;;;-10.55;66.41;91773.31;2051748;70;20134;-74
2022/12/13 06:23:53;;;;;;;58.22;19.80;;;;;;;-10.65;66.75;91763.94;2051053;70;20181;-74
2022/12/13 06:26:19;;;;;;;59.75;22.63;;;;;;;-10.62;67.66;91765.69;2051563;70;20595;-79
2022/12/13 06:28:44;;;;;;;62.38;21.83;;;;;;;-10.51;67.29;91777.25;2050862;70;20177;-75
2022/12/13 06:31:10;;;;;;;61.97;23.05;;;;;;;-10.56;66.76;91769.13;2051752;69;20142;-79
2022/12/13 06:33:37;;;;;;;109.18;33.25;;;;;;;-10.46;67.17;91785.91;2050959;70;20650;-79
2022/12/13 06:36:04;;;;;;;141.32;41.15;;;;;;;-10.44;67.33;91773.31;2050784;70;20182;-77
2022/12/13 06:38:30;;;;;;;167.60;44.67;;;;;;;-10.50;66.48;91767.13;2051805;70;20149;-76
2022/12/13 06:41:12;;;;;;;153.55;44.53;;;;;;;-10.40;66.93;91773.03;2051461;69;20153;-80
2022/12/13 06:43:42;;;;;;;127.07;38.10;;;;;;;-10.40;67.03;91762.13;2051443;70;20627;-81
2022/12/13 06:46:07;;;;;;;136.65;40.40;;;;;;;-10.33;67.60;91758.91;2051476;69;20303;-79
2022/12/13 06:48:33;;;;;;;134.07;39.97;;;;;;;-10.26;67.20;91758.41;2051045;70;20165;-78
2022/12/13 06:51:03;;;;;;;134.63;40.10;;;;;;;-10.34;67.30;91755.47;2051024;69;20603;-78
2022/12/13 06:53:30;;;;;;;133.13;39.83;;;;;;;-10.26;66.96;91761.13;2050963;70;20170;-75
2022/12/13 06:55:56;;;;;;;126.43;38.78;;;;;;;-10.26;66.81;91767.31;2051283;70;20551;-75
2022/12/13 06:58:22;;;;;;;105.95;31.52;;;;;;;-10.14;67.39;91757.06;2050738;70;20195;-75
2022/12/13 07:00:48;;;;;;;94.38;28.90;;;;;;;-10.26;66.54;91766.56;2051280;70;20599;-77
2022/12/13 07:03:14;;;;;;;80.55;26.83;;;;;;;-10.14;67.18;91759.78;2051386;69;20165;-74
2022/12/13 07:05:40;;;;;;;85.88;27.60;;;;;;;-10.10;67.03;91765.00;2051108;70;20161;-79
2022/12/13 07:08:06;;;;;;;76.68;25.77;;;;;;;-10.15;66.58;91765.75;2051220;69;20147;-77
2022/12/13 07:10:32;;;;;;;70.38;24.65;;;;;;;-10.17;66.26;91771.72;2050518;70;20570;-79
2022/12/13 07:12:57;;;;;;;120.70;34.72;;;;;;;-10.07;67.46;91777.59;2051685;70;20146;-76
2022/12/13 07:15:24;;;;;;;117.93;36.33;;;;;;;-10.15;67.54;91771.19;2051668;70;20166;-78
2022/12/13 07:17:50;;;;;;;112.75;36.00;;;;;;;-9.96;66.83;91783.00;2050646;70;20225;-79
2022/12/13 07:20:18;;;;;;;100.80;30.70;;;;;;;-9.94;66.43;91775.06;2051487;70;20174;-74
2022/12/13 07:22:44;;;;;;;98.78;32.25;;;;;;;-10.02;66.55;91771.41;2047729;70;20209;-74
2022/12/13 07:25:09;;;;;;;146.88;40.33;;;;;;;-10.14;67.61;91784.28;2050905;70;20553;-79
2022/12/13 07:27:35;;;;;;;143.98;42.38;;;;;;;-9.98;67.58;91777.31;2051518;70;20287;-75
2022/12/13 07:30:06;;;;;;;124.25;37.20;;;;;;;-9.85;67.45;91784.91;2051948;69;20150;-76
2022/12/13 07:32:32;;;;;;;123.90;40.40;;;;;;;-9.72;67.07;91785.84;2051889;70;20595;-75
2022/12/13 07:34:57;;;;;;;123.60;42.53;;;;;;;-9.47;67.21;91781.25;2052082;70;20146;-75
2022/12/13 07:37:25;;;;;;;130.13;42.25;;;;;;;-9.34;67.27;91797.03;2052161;70;20177;-75
2022/12/13 07:39:50;;;;;;;116.75;41.47;;;;;;;-9.22;67.16;91792.97;2051980;70;20193;-75
2022/12/13 07:42:16;;;;;;;93.07;35.15;;;;;;;-9.07;67.45;91797.34;2053096;70;20138;-82
2022/12/13 07:44:41;;;;;;;91.68;35.30;;;;;;;-8.92;67.15;91786.09;2057307;70;20258;-80
2022/12/13 07:47:07;;;;;;;92.43;35.55;;;;;;;-8.76;67.46;91799.56;2057498;70;20185;-76
2022/12/13 07:49:33;;;;;;;84.80;28.73;;;;;;;-9.26;67.37;91787.06;2053982;69;20174;-81
2022/12/13 07:51:58;;;;;;;61.55;22.15;;;;;;;-9.24;68.57;91792.00;2053141;70;20154;-78
2022/12/13 07:54:24;;;;;;;63.55;20.35;;;;;;;-8.83;67.46;91796.69;2052637;70;20225;-80
2022/12/13 07:56:51;;;;;;;60.60;19.67;;;;;;;-8.81;67.18;91794.16;2051927;69;20560;-78
2022/12/13 07:59:17;;;;;;;55.45;20.17;;;;;;;-8.52;66.44;91787.97;2051202;70;20154;-76
2022/12/13 08:01:42;;;;;;;66.32;23.08;;;;;;;-8.41;67.00;91783.66;2051690;70;20177;-78
2022/12/13 08:04:08;;;;;;;67.97;24.92;;;;;;;-8.33;66.90;91787.25;2051843;70;20142;-76
2022/12/13 08:06:36;;;;;;;67.90;23.40;;;;;;;-8.18;66.46;91785.59;2051567;70;20130;-76
2022/12/13 08:09:02;;;;;;;65.65;22.38;;;;;;;-8.26;66.18;91778.50;2051623;70;20481;-78
2022/12/13 08:11:28;;;;;;;78.45;27.63;;;;;;;-8.24;66.56;91784.94;2051605;70;20161;-75
2022/12/13 08:13:54;;;;;;;57.63;21.23;;;;;;;-8.17;66.47;91775.41;2051685;69;20142;-78
2022/12/13 08:16:19;;;;;;;67.88;22.90;;;;;;;-7.91;66.28;91772.16;2051502;70;20165;-78
2022/12/13 08:18:48;;;;;;;67.10;25.65;;;;;;;-7.63;66.12;91784.72;2051265;70;20331;-77
2022/12/13 08:21:14;;;;;;;74.10;28.98;;;;;;;-7.61;65.96;91780.22;2051502;70;20146;-79
2022/12/13 08:23:39;;;;;;;96.53;38.90;;;;;;;-7.45;66.18;91773.78;2050741;70;20253;-76
2022/12/13 08:26:06;;;;;;;97.20;39.35;;;;;;;-7.26;64.98;91770.31;2051465;70;20264;-78
2022/12/13 08:28:32;;;;;;;45.05;18.88;;;;;;;-7.23;65.24;91770.03;2050924;70;20130;-79
2022/12/13 08:31:06;;;;;;;49.13;19.80;;;;;;;-7.07;64.54;91764.81;2051418;70;20144;-76
2022/12/13 08:33:33;;;;;;;49.67;20.02;;;;;;;-7.08;64.83;91757.88;2050844;70;20154;-76
2022/12/13 08:36:16;;;;;;;45.42;18.42;;;;;;;-6.80;65.70;91769.13;2051309;70;20157;-75
2022/12/13 08:38:45;;;;;;;62.00;22.98;;;;;;;-6.69;64.69;91759.97;2050900;70;20208;-74
2022/12/13 08:41:12;;;;;;;57.33;22.58;;;;;;;-6.48;64.45;91771.81;2051398;69;20150;-76
2022/12/13 08:43:41;;;;;;;65.40;26.98;;;;;;;-6.42;64.43;91769.72;2051433;70;20629;-76
2022/12/13 08:46:06;;;;;;;63.80;26.67;;;;;;;-6.48;64.50;91766.34;2051304;70;20185;-77
2022/12/13 08:48:32;;;;;;;70.72;28.65;;;;;;;-6.48;64.77;91773.81;2050804;70;20308;-75
2022/12/13 08:51:12;;;;;;;71.95;27.23;;;;;;;-6.27;64.67;91768.50;2051528;70;20153;-77
2022/12/13 08:53:38;;;;;;;69.60;28.55;;;;;;;-6.15;64.59;91764.28;2051547;70;20135;-76
2022/12/13 08:56:09;;;;;;;81.43;34.00;;;;;;;-6.08;64.19;91766.41;2051544;70;20134;-76
2022/12/13 08:58:36;;;;;;;71.80;28.42;;;;;;;-5.91;64.40;91764.06;2051619;70;20151;-74
2022/12/13 09:01:06;;;;;;;58.50;23.95;;;;;;;-5.83;64.84;91763.41;2051314;69;20151;-74
2022/12/13 09:03:31;;;;;;;58.60;22.33;;;;;;;-5.65;62.78;91759.81;2051257;70;20154;-76
2022/12/13 09:06:09;;;;;;;49.97;22.15;;;;;;;-5.91;64.16;91755.84;2051210;70;20154;-77
2022/12/13 09:08:36;;;;;;;60.78;22.15;;;;;;;-6.29;65.32;91771.00;2051349;70;20146;-77
2022/12/13 09:11:03;;;;;;;60.78;25.05;;;;;;;-6.02;63.96;91760.81;2051289;70;20142;-77
2022/12/13 09:13:34;;;;;;;55.70;22.60;;;;;;;-5.68;63.94;91764.34;2051288;70;20162;-78
2022/12/13 09:16:08;;;;;;;51.03;22.25;;;;;;;-5.53;63.41;91760.31;2051344;70;20229;-79
2022/12/13 09:18:34;;;;;;;46.38;20.40;;;;;;;-5.44;64.00;91754.41;2051265;69;20174;-79
2022/12/13 09:20:59;;;;;;;42.28;19.90;;;;;;;-5.51;63.38;91757.78;2051233;70;20251;-76
2022/12/13 09:23:25;;;;;;;50.85;21.08;;;;;;;-5.52;64.59;91762.53;2051236;70;20146;-76
2022/12/13 09:25:59;;;;;;;43.95;20.30;;;;;;;-5.41;63.43;91754.06;2051078;70;20157;-75
2022/12/13 09:28:26;;;;;;;50.58;20.33;;;;;;;-5.15;63.10;91766.25;2051465;69;20305;-76
2022/12/13 09:30:51;;;;;;;41.55;19.38;;;;;;;-5.00;62.55;91760.91;2051267;69;20134;-75
2022/12/13 09:33:17;;;;;;;67.82;26.48;;;;;;;-5.13;63.03;91763.72;2051250;70;20153;-75
2022/12/13 09:35:44;;;;;;;71.68;26.50;;;;;;;-5.25;63.52;91765.94;2051504;70;20479;-75
2022/12/13 09:38:10;;;;;;;115.53;36.60;;;;;;;-5.42;63.98;91758.06;2051592;69;20285;-76
2022/12/13 09:40:38;;;;;;;80.70;31.30;;;;;;;-5.37;63.51;91757.22;2051576;69;20510;-75
2022/12/13 09:43:04;;;;;;;116.72;50.50;;;;;;;-5.07;63.43;91758.84;2051366;70;20154;-74
2022/12/13 09:45:32;;;;;;;104.47;45.33;;;;;;;-4.91;62.78;91754.94;2051321;70;20318;-76
2022/12/13 09:47:58;;;;;;;57.45;21.45;;;;;;;-5.04;63.18;91748.78;2050742;70;20233;-76
2022/12/13 09:50:34;;;;;;;52.42;21.60;;;;;;;-5.16;62.99;91751.06;2051532;69;20166;-78
2022/12/13 09:53:03;;;;;;;43.03;17.05;;;;;;;-5.42;63.09;91746.38;2051423;70;20153;-78
2022/12/13 09:55:38;;;;;;;46.20;15.98;;;;;;;-4.89;62.06;91751.69;2051099;69;20146;-76
2022/12/13 09:58:13;;;;;;;38.08;16.42;;;;;;;-4.70;62.62;91746.00;2051591;70;20491;-76
2022/12/13 10:00:39;;;;;;;37.50;16.70;;;;;;;-4.54;62.94;91736.59;2050677;70;20158;-75
2022/12/13 10:03:11;;;;;;;39.78;18.00;;;;;;;-4.35;62.04;91733.66;2051103;69;20146;-77
2022/12/13 10:05:37;;;;;;;40.33;18.48;;;;;;;-4.28;60.80;91735.72;2051328;69;20154;-77
2022/12/13 10:08:42;;;;;;;39.28;16.42;;;;;;;-3.95;60.72;91733.38;2051201;69;20174;-76
2022/12/13 10:11:12;;;;;;;36.55;16.73;;;;;;;-3.86;60.03;91728.09;2040403;70;20266;-75
2022/12/13 10:13:53;;;;;;;32.63;13.63;;;;;;;-3.72;59.67;91730.75;2040506;70;20170;-77
2022/12/13 10:16:37;;;;;;;30.63;15.18;;;;;;;-3.57;60.26;91722.59;2040726;70;20484;-77
2022/12/13 10:19:37;;;;;;;41.17;17.85;;;;;;;-3.61;59.76;91719.44;2040407;70;20250;-80
2022/12/13 10:22:07;;;;;;;40.92;16.83;;;;;;;-3.73;60.40;91721.75;2040563;70;20671;-77
2022/12/13 10:24:59;;;;;;;40.83;14.68;;;;;;;-4.19;60.21;91709.75;2040408;70;20175;-77
2022/12/13 10:27:39;;;;;;;24.52;11.85;;;;;;;-3.50;59.29;91716.34;2040526;70;20164;-80
2022/12/13 10:30:05;;;;;;;29.55;11.77;;;;;;;-3.54;58.16;91710.47;2040530;70;20147;-80
2022/12/13 10:32:33;;;;;;;48.65;17.45;;;;;;;-3.35;59.33;91699.91;2040292;70;20646;-80
2022/12/13 10:35:10;;;;;;;34.22;14.52;;;;;;;-3.36;59.71;91703.94;2040460;70;20574;-78
2022/12/13 10:37:36;;;;;;;37.58;14.23;;;;;;;-3.01;58.62;91703.69;2040599;70;20155;-79
2022/12/13 10:40:03;;;;;;;41.97;15.73;;;;;;;-2.95;58.62;91704.22;2040378;70;20234;-79
2022/12/13 10:42:28;;;;;;;46.10;17.95;;;;;;;-2.97;57.73;91698.56;2040565;70;20242;-77
2022/12/13 10:45:15;;;;;;;39.17;16.52;;;;;;;-2.86;58.43;91698.19;2037734;70;20178;-75
2022/12/13 10:47:43;;;;;;;43.75;18.13;;;;;;;-3.17;57.94;91686.38;2050437;70;20229;-76
2022/12/13 10:50:27;;;;;;;41.35;16.90;;;;;;;-2.79;58.06;91686.47;2051054;70;20134;-77
2022/12/13 10:52:55;;;;;;;35.95;13.90;;;;;;;-2.91;57.84;91683.31;2050627;70;20139;-77
2022/12/13 10:55:34;;;;;;;49.03;14.95;;;;;;;-2.84;58.40;91668.06;2051055;70;20241;-79
2022/12/13 10:58:06;;;;;;;31.02;12.70;;;;;;;-3.00;58.35;91685.88;2051270;70;20153;-79
2022/12/13 11:00:46;;;;;;;33.83;12.50;;;;;;;-3.05;57.56;91675.78;2051276;70;20135;-80
2022/12/13 11:03:29;;;;;;;29.40;13.13;;;;;;;-3.01;58.43;91668.63;2051076;70;20130;-75
2022/12/13 11:06:13;;;;;;;;;;;;;;;-2.66;58.16;91666.97;2051367;69;20158;-78
2022/12/13 11:08:40;;;;;;;36.03;14.80;;;;;;;-2.59;57.85;91660.75;2050936;70;20050;-77
2022/12/13 11:11:08;;;;;;;37.65;18.00;;;;;;;-2.81;57.87;91662.19;2051155;70;20245;-77
2022/12/13 11:13:43;;;;;;;51.65;16.85;;;;;;;-2.83;57.29;91651.00;2051198;70;20632;-78
2022/12/13 11:16:32;;;;;;;38.85;13.38;;;;;;;-3.05;57.70;91656.50;2051191;69;20149;-76
2022/12/13 11:19:07;;;;;;;36.50;12.55;;;;;;;-2.76;58.24;91646.78;2050702;70;20208;-78
2022/12/13 11:21:36;;;;;;;43.28;12.52;;;;;;;-2.60;57.91;91647.53;2051065;70;20272;-76
2022/12/13 11:24:06;;;;;;;22.80;8.98;;;;;;;-2.96;57.18;91642.19;2050996;70;20650;-78
2022/12/13 11:26:38;;;;;;;23.42;9.10;;;;;;;-2.98;56.05;91644.75;2051214;70;20150;-81
2022/12/13 11:29:12;;;;;;;17.38;7.10;;;;;;;-2.89;57.81;91641.44;2050688;70;20607;-81
2022/12/13 11:31:53;;;;;;;25.52;11.23;;;;;;;-2.64;57.70;91642.38;2051131;70;20142;-80
2022/12/13 11:34:29;;;;;;;26.17;12.00;;;;;;;-2.48;57.36;91643.09;2051158;70;20317;-80